createdAt,value
2023-05-13T00:02:03.785Z,49.18
2023-05-13T00:04:35.848Z,49.24
2023-05-13T00:07:08.437Z,49.04
2023-05-13T00:09:40.286Z,49.22
2023-05-13T00:12:12.619Z,49.14
2023-05-13T00:14:44.103Z,49.12
2023-05-13T00:17:15.626Z,49.15
2023-05-13T00:19:47.684Z,49.21
2023-05-13T00:22:18.907Z,49.18
2023-05-13T00:24:50.247Z,49.63
2023-05-13T00:27:22.040Z,49.85
2023-05-13T00:29:53.214Z,50.11
2023-05-13T00:32:24.778Z,50.27
2023-05-13T00:34:56.668Z,50.26
2023-05-13T00:37:28.027Z,50.30
2023-05-13T00:39:59.449Z,50.51
2023-05-13T00:42:30.991Z,50.50
2023-05-13T00:45:02.247Z,50.57
2023-05-13T00:47:34.242Z,50.48
2023-05-13T00:50:07.509Z,50.68
2023-05-13T00:52:40.225Z,50.69
2023-05-13T00:55:13.332Z,50.80
2023-05-13T00:57:44.582Z,50.65
2023-05-13T01:00:17.653Z,50.82
2023-05-13T01:02:56.004Z,50.94
2023-05-13T01:05:33.311Z,50.91
2023-05-13T01:08:17.476Z,51.00
2023-05-13T01:10:51.839Z,51.04
2023-05-13T01:13:28.355Z,51.02
2023-05-13T01:16:08.293Z,51.16
2023-05-13T01:18:42.216Z,51.21
2023-05-13T01:21:14.781Z,51.11
2023-05-13T01:23:46.525Z,51.22
2023-05-13T01:26:18.121Z,51.18
2023-05-13T01:28:50.186Z,51.20
2023-05-13T01:31:25.842Z,51.08
2023-05-13T01:33:57.885Z,51.20
2023-05-13T01:36:29.923Z,50.99
2023-05-13T01:39:02.423Z,51.17
2023-05-13T01:41:34.498Z,51.06
2023-05-13T01:44:06.500Z,51.01
2023-05-13T01:46:38.898Z,50.86
2023-05-13T01:49:10.894Z,50.89
2023-05-13T01:51:42.463Z,50.96
2023-05-13T01:54:14.853Z,51.03
2023-05-13T01:56:50.155Z,51.12
2023-05-13T01:59:23.183Z,51.05
2023-05-13T02:01:54.815Z,51.07
2023-05-13T02:04:26.155Z,51.20
2023-05-13T02:06:58.002Z,51.17
2023-05-13T02:09:30.879Z,50.99
2023-05-13T02:12:02.646Z,51.19
2023-05-13T02:14:34.133Z,51.26
2023-05-13T02:17:07.504Z,51.25
2023-05-13T02:19:39.286Z,51.39
2023-05-13T02:22:10.620Z,51.35
2023-05-13T02:24:42.775Z,51.51
2023-05-13T02:27:16.427Z,51.62
2023-05-13T02:29:47.895Z,51.66
2023-05-13T02:32:19.396Z,51.82
2023-05-13T02:34:51.191Z,51.70
2023-05-13T02:37:22.576Z,51.64
2023-05-13T02:39:58.011Z,51.71
2023-05-13T02:42:29.827Z,51.77
2023-05-13T02:45:01.097Z,51.80
2023-05-13T02:47:34.151Z,52.09
2023-05-13T02:50:10.327Z,51.92
2023-05-13T02:52:42.359Z,51.97
2023-05-13T02:55:13.876Z,52.02
2023-05-13T02:57:46.919Z,52.00
2023-05-13T03:00:20.438Z,51.96
2023-05-13T03:02:52.349Z,51.93
2023-05-13T03:05:24.171Z,51.86
2023-05-13T03:07:55.594Z,52.03
2023-05-13T03:10:26.603Z,51.93
2023-05-13T03:12:58.281Z,52.01
2023-05-13T03:15:29.985Z,52.04
2023-05-13T03:18:01.705Z,52.12
2023-05-13T03:20:33.758Z,51.94
2023-05-13T03:23:06.661Z,52.09
2023-05-13T03:25:38.676Z,52.10
2023-05-13T03:28:12.127Z,52.12
2023-05-13T03:30:46.629Z,52.25
2023-05-13T03:33:20.831Z,52.42
2023-05-13T03:35:52.476Z,52.31
2023-05-13T03:38:27.624Z,52.35
2023-05-13T03:40:59.199Z,52.46
2023-05-13T03:43:31.060Z,52.52
2023-05-13T03:46:05.337Z,52.59
2023-05-13T03:48:36.921Z,52.62
2023-05-13T03:51:09.470Z,52.55
2023-05-13T03:53:42.102Z,52.79
2023-05-13T03:56:13.864Z,52.73
2023-05-13T03:58:45.632Z,52.87
2023-05-13T04:01:17.520Z,52.95
2023-05-13T04:03:50.358Z,52.97
2023-05-13T04:06:21.792Z,52.89
2023-05-13T04:08:54.126Z,52.76
2023-05-13T04:11:25.151Z,52.83
2023-05-13T04:13:56.411Z,52.90
2023-05-13T04:16:29.453Z,52.99
2023-05-13T04:19:00.671Z,53.13
2023-05-13T04:21:32.688Z,53.22
2023-05-13T04:24:04.097Z,53.27
2023-05-13T04:26:35.990Z,53.32
2023-05-13T04:29:07.442Z,53.21
2023-05-13T04:31:39.390Z,53.28
2023-05-13T04:34:11.048Z,53.12
2023-05-13T04:36:42.963Z,53.36
2023-05-13T04:39:14.894Z,53.47
2023-05-13T04:41:48.463Z,53.83
2023-05-13T04:44:20.100Z,53.32
2023-05-13T04:46:52.013Z,52.98
2023-05-13T04:49:23.465Z,52.75
2023-05-13T04:51:55.653Z,52.43
2023-05-13T04:54:28.518Z,52.10
2023-05-13T04:57:00.222Z,52.24
2023-05-13T04:59:31.904Z,51.76
2023-05-13T05:02:03.688Z,51.69
2023-05-13T05:04:35.392Z,51.62
2023-05-13T05:07:09.419Z,51.31
2023-05-13T05:09:40.665Z,51.28
2023-05-13T05:12:13.080Z,51.04
2023-05-13T05:14:45.611Z,50.59
2023-05-13T05:17:17.791Z,50.31
2023-05-13T05:19:49.216Z,50.15
2023-05-13T05:22:20.491Z,50.29
2023-05-13T05:24:51.890Z,50.44
2023-05-13T05:27:23.323Z,50.45
2023-05-13T05:29:54.748Z,50.24
2023-05-13T05:32:27.375Z,50.07
2023-05-13T05:34:58.950Z,49.86
2023-05-13T05:37:30.385Z,49.65
2023-05-13T05:40:01.893Z,49.47
2023-05-13T05:42:33.549Z,49.43
2023-05-13T05:45:05.161Z,49.39
2023-05-13T05:47:36.474Z,49.19
2023-05-13T05:50:10.536Z,49.15
2023-05-13T05:52:42.761Z,49.03
2023-05-13T05:55:16.532Z,49.02
2023-05-13T05:57:48.114Z,49.05
2023-05-13T06:00:22.131Z,49.09
2023-05-13T06:02:54.132Z,48.86
2023-05-13T06:05:26.448Z,48.51
2023-05-13T06:07:57.827Z,48.30
2023-05-13T06:10:29.766Z,48.27
2023-05-13T06:13:01.492Z,48.15
2023-05-13T06:15:33.721Z,48.11
2023-05-13T06:18:06.174Z,48.11
2023-05-13T06:20:39.394Z,48.04
2023-05-13T06:23:11.386Z,47.96
2023-05-13T06:25:43.305Z,47.86
2023-05-13T06:28:14.748Z,47.43
2023-05-13T06:30:46.688Z,47.53
2023-05-13T06:33:19.102Z,47.63
2023-05-13T06:35:51.348Z,47.56
2023-05-13T06:38:25.666Z,47.54
2023-05-13T06:41:00.813Z,47.60
2023-05-13T06:43:38.841Z,47.82
2023-05-13T06:46:27.079Z,48.01
2023-05-13T06:48:58.582Z,48.14
2023-05-13T06:51:30.755Z,48.24
2023-05-13T06:54:02.141Z,48.18
2023-05-13T06:56:34.704Z,48.16
2023-05-13T06:59:06.096Z,48.51
2023-05-13T07:01:37.596Z,48.91
2023-05-13T07:04:09.608Z,48.80
2023-05-13T07:06:41.585Z,49.04
2023-05-13T07:09:13.363Z,49.07
2023-05-13T07:11:45.298Z,49.15
2023-05-13T07:14:16.942Z,49.21
2023-05-13T07:16:48.627Z,49.21
2023-05-13T07:19:20.335Z,49.15
2023-05-13T07:21:52.182Z,49.40
2023-05-13T07:24:24.240Z,49.45
2023-05-13T07:26:56.276Z,49.40
2023-05-13T07:29:28.514Z,49.27
2023-05-13T07:31:59.995Z,49.09
2023-05-13T07:34:31.491Z,49.02
2023-05-13T07:37:04.229Z,48.93
2023-05-13T07:39:35.771Z,48.88
2023-05-13T07:42:08.517Z,48.94
2023-05-13T07:44:42.128Z,49.39
2023-05-13T07:47:13.999Z,49.28
2023-05-13T07:49:46.260Z,49.05
2023-05-13T07:52:17.867Z,49.10
2023-05-13T07:54:49.632Z,49.11
2023-05-13T07:57:21.120Z,49.11
2023-05-13T07:59:53.092Z,48.86
2023-05-13T08:02:24.729Z,48.76
2023-05-13T08:04:56.258Z,48.85
2023-05-13T08:07:27.587Z,48.76
2023-05-13T08:09:59.578Z,48.68
2023-05-13T08:12:31.089Z,48.67
2023-05-13T08:15:04.099Z,48.71
2023-05-13T08:17:35.775Z,48.47
2023-05-13T08:20:08.758Z,48.33
2023-05-13T08:22:40.822Z,48.31
2023-05-13T08:25:12.687Z,48.26
2023-05-13T08:27:44.129Z,48.20
2023-05-13T08:30:17.520Z,47.96
2023-05-13T08:32:48.926Z,48.18
2023-05-13T08:35:21.769Z,48.14
2023-05-13T08:37:53.514Z,47.99
2023-05-13T08:40:25.353Z,48.21
2023-05-13T08:42:59.316Z,47.78
2023-05-13T08:45:32.766Z,47.41
2023-05-13T08:48:05.525Z,47.10
2023-05-13T08:50:37.628Z,47.31
2023-05-13T08:53:11.496Z,47.48
2023-05-13T08:55:42.994Z,47.33
2023-05-13T08:58:14.577Z,46.92
2023-05-13T09:00:46.566Z,46.93
2023-05-13T09:03:18.227Z,46.51
2023-05-13T09:05:49.736Z,46.65
2023-05-13T09:08:21.330Z,46.91
2023-05-13T09:10:55.326Z,47.03
2023-05-13T09:13:26.728Z,47.03
2023-05-13T09:15:58.756Z,46.90
2023-05-13T09:18:34.129Z,46.99
2023-05-13T09:21:25.968Z,46.77
2023-05-13T09:24:08.706Z,46.65
2023-05-13T09:26:43.395Z,46.40
2023-05-13T09:29:25.966Z,46.16
2023-05-13T09:31:59.325Z,46.07
2023-05-13T09:34:32.507Z,45.98
2023-05-13T09:37:05.407Z,46.09
2023-05-13T09:39:40.141Z,46.02
2023-05-13T09:42:18.619Z,45.84
2023-05-13T09:44:50.481Z,46.13
2023-05-13T09:47:21.767Z,46.01
2023-05-13T09:49:58.124Z,46.07
2023-05-13T09:52:30.512Z,46.33
2023-05-13T09:55:04.959Z,46.31
2023-05-13T09:57:38.296Z,46.06
2023-05-13T10:00:21.099Z,45.96
2023-05-13T10:03:01.560Z,45.81
2023-05-13T10:05:33.659Z,45.52
2023-05-13T10:08:06.503Z,45.28
2023-05-13T10:10:38.363Z,46.24
2023-05-13T10:13:13.592Z,45.64
2023-05-13T10:15:52.078Z,45.47
2023-05-13T10:18:25.328Z,44.98
2023-05-13T10:20:58.245Z,44.85
2023-05-13T10:23:31.891Z,44.53
2023-05-13T10:26:04.248Z,44.44
2023-05-13T10:28:35.758Z,44.35
2023-05-13T10:31:08.064Z,44.43
2023-05-13T10:33:41.318Z,44.14
2023-05-13T10:36:32.686Z,44.21
2023-05-13T10:39:19.818Z,43.94
2023-05-13T10:42:30.234Z,44.40
2023-05-13T10:45:03.132Z,44.39
2023-05-13T10:47:37.748Z,44.41
2023-05-13T10:50:23.771Z,44.65
2023-05-13T10:52:58.890Z,44.65
2023-05-13T10:55:30.633Z,44.66
2023-05-13T10:58:12.445Z,44.71
2023-05-13T11:00:45.968Z,44.85
2023-05-13T11:03:31.472Z,44.75
2023-05-13T11:06:16.475Z,44.56
2023-05-13T11:08:48.981Z,44.95
2023-05-13T11:11:27.734Z,44.68
2023-05-13T11:14:08.511Z,44.84
2023-05-13T11:16:40.907Z,44.79
2023-05-13T11:19:23.572Z,44.67
2023-05-13T11:21:56.748Z,44.61
2023-05-13T11:24:30.320Z,44.65
2023-05-13T11:27:14.273Z,44.46
2023-05-13T11:29:52.329Z,44.64
2023-05-13T11:32:50.830Z,44.39
2023-05-13T11:35:24.738Z,44.20
2023-05-13T11:37:59.145Z,44.09
2023-05-13T11:40:34.474Z,44.04
2023-05-13T11:43:06.424Z,44.15
2023-05-13T11:45:42.362Z,43.95
2023-05-13T11:48:25.081Z,44.07
2023-05-13T11:50:59.727Z,43.96
2023-05-13T11:53:31.070Z,43.87
2023-05-13T11:56:13.029Z,44.06
2023-05-13T11:58:45.015Z,43.77
2023-05-13T12:01:18.519Z,43.68
2023-05-13T12:03:49.859Z,43.60
2023-05-13T12:06:21.431Z,43.50
2023-05-13T12:08:52.866Z,43.48
2023-05-13T12:11:24.499Z,43.75
2023-05-13T12:13:56.036Z,43.77
2023-05-13T12:16:36.327Z,43.76
2023-05-13T12:19:10.475Z,43.35
2023-05-13T12:21:42.461Z,43.27
2023-05-13T12:24:34.441Z,43.52
2023-05-13T12:27:11.529Z,43.95
2023-05-13T12:29:46.340Z,43.92
2023-05-13T12:32:19.748Z,43.56
2023-05-13T12:34:53.562Z,43.62
2023-05-13T12:37:27.502Z,43.83
2023-05-13T12:42:57.642Z,43.76
2023-05-13T12:45:32.495Z,43.79
2023-05-13T12:48:05.467Z,43.50
2023-05-13T12:50:36.600Z,43.12
2023-05-13T12:53:07.956Z,43.53
2023-05-13T12:55:40.240Z,43.66
2023-05-13T12:58:13.096Z,43.91
2023-05-13T13:00:44.528Z,43.75
2023-05-13T13:03:16.357Z,43.83
2023-05-13T13:05:48.293Z,43.39
2023-05-13T13:08:19.900Z,42.76
2023-05-13T13:10:51.393Z,43.39
2023-05-13T13:13:22.540Z,42.94
2023-05-13T13:15:54.008Z,43.25
2023-05-13T13:18:26.049Z,44.16
2023-05-13T13:20:57.363Z,44.79
2023-05-13T13:23:28.814Z,44.80
2023-05-13T13:26:00.191Z,44.47
2023-05-13T13:28:31.984Z,44.47
2023-05-13T13:31:03.304Z,44.79
2023-05-13T13:33:34.594Z,44.96
2023-05-13T13:36:06.801Z,44.90
2023-05-13T13:38:38.065Z,44.58
2023-05-13T13:41:09.618Z,44.97
2023-05-13T13:43:41.212Z,44.95
2023-05-13T13:46:12.548Z,45.02
2023-05-13T13:48:43.767Z,45.50
2023-05-13T13:51:15.138Z,45.73
2023-05-13T13:53:46.250Z,45.66
2023-05-13T13:56:17.503Z,45.70
2023-05-13T13:58:48.727Z,45.59
2023-05-13T14:01:20.400Z,46.00
2023-05-13T14:03:54.077Z,46.17
2023-05-13T14:06:26.106Z,45.95
2023-05-13T14:08:57.747Z,46.24
2023-05-13T14:11:29.218Z,46.30
2023-05-13T14:14:00.270Z,46.54
2023-05-13T14:16:32.045Z,46.58
2023-05-13T14:19:03.167Z,46.26
2023-05-13T14:21:35.013Z,46.19
2023-05-13T14:24:08.652Z,46.08
2023-05-13T14:26:39.918Z,45.83
2023-05-13T14:29:10.855Z,45.88
2023-05-13T14:31:45.303Z,45.77
2023-05-13T14:34:17.407Z,45.80
2023-05-13T14:36:49.608Z,45.80
2023-05-13T14:39:20.948Z,45.73
2023-05-13T14:41:52.406Z,45.62
2023-05-13T14:44:23.548Z,45.69
2023-05-13T14:46:55.025Z,45.86
2023-05-13T14:49:26.370Z,45.70
2023-05-13T14:51:58.346Z,45.76
2023-05-13T14:54:35.492Z,45.73
2023-05-13T14:57:08.962Z,45.61
2023-05-13T14:59:40.042Z,45.51
2023-05-13T15:02:14.021Z,45.48
2023-05-13T15:04:45.406Z,45.50
2023-05-13T15:07:19.639Z,45.60
2023-05-13T15:09:51.152Z,45.57
2023-05-13T15:12:22.458Z,45.38
2023-05-13T15:14:56.148Z,45.33
2023-05-13T15:17:27.609Z,45.25
2023-05-13T15:19:58.833Z,45.33
2023-05-13T15:22:30.683Z,45.12
2023-05-13T15:25:03.700Z,45.29
2023-05-13T15:27:35.281Z,45.41
2023-05-13T15:30:07.474Z,45.36
2023-05-13T15:32:38.674Z,45.35
2023-05-13T15:35:11.610Z,45.22
2023-05-13T15:37:44.139Z,45.32
2023-05-13T15:40:16.388Z,45.51
2023-05-13T15:42:48.262Z,45.57
2023-05-13T15:45:20.475Z,45.82
2023-05-13T15:47:52.066Z,46.00
2023-05-13T15:50:24.252Z,46.21
2023-05-13T15:52:55.654Z,46.14
2023-05-13T15:55:27.269Z,45.91
2023-05-13T15:57:58.470Z,46.01
2023-05-13T16:00:31.260Z,46.09
2023-05-13T16:03:02.491Z,46.29
2023-05-13T16:05:33.813Z,46.34
2023-05-13T16:08:05.002Z,46.12
2023-05-13T16:10:36.604Z,46.04
2023-05-13T16:13:07.813Z,46.18
2023-05-13T16:15:38.918Z,46.67
2023-05-13T16:18:10.467Z,46.65
2023-05-13T16:20:41.682Z,47.17
2023-05-13T16:23:13.400Z,47.23
2023-05-13T16:25:45.873Z,47.97
2023-05-13T16:28:17.167Z,48.40
2023-05-13T16:30:48.140Z,48.19
2023-05-13T16:33:19.942Z,48.51
2023-05-13T16:35:51.950Z,48.49
2023-05-13T16:38:23.436Z,48.26
2023-05-13T16:40:54.645Z,48.06
2023-05-13T16:43:25.874Z,48.07
2023-05-13T16:45:57.366Z,47.96
2023-05-13T16:48:28.786Z,47.79
2023-05-13T16:50:59.964Z,47.74
2023-05-13T16:53:31.423Z,47.95
2023-05-13T16:56:02.364Z,47.97
2023-05-13T16:58:33.360Z,48.22
2023-05-13T17:01:04.551Z,48.39
2023-05-13T17:03:36.137Z,48.51
2023-05-13T17:06:08.436Z,48.59
2023-05-13T17:11:24.335Z,48.55
2023-05-13T17:13:55.681Z,48.47
2023-05-13T17:16:27.020Z,48.47
2023-05-13T17:18:59.167Z,48.49
2023-05-13T17:21:30.931Z,48.53
2023-05-13T17:24:02.271Z,48.47
2023-05-13T17:26:36.058Z,48.16
2023-05-13T17:29:08.078Z,48.07
2023-05-13T17:31:39.481Z,48.12
2023-05-13T17:34:10.551Z,48.11
2023-05-13T17:36:41.868Z,48.19
2023-05-13T17:39:13.745Z,48.25
2023-05-13T17:41:45.235Z,48.34
2023-05-13T17:44:17.157Z,48.33
2023-05-13T17:46:48.321Z,48.37
2023-05-13T17:49:19.265Z,48.43
2023-05-13T17:51:50.565Z,48.67
2023-05-13T17:54:23.387Z,48.63
2023-05-13T17:56:54.731Z,48.86
2023-05-13T17:59:25.614Z,48.94
2023-05-13T18:01:56.603Z,48.93
2023-05-13T18:04:27.671Z,48.95
2023-05-13T18:06:58.633Z,49.11
2023-05-13T18:09:29.829Z,49.17
2023-05-13T18:12:01.165Z,49.41
2023-05-13T18:14:33.325Z,49.50
2023-05-13T18:17:04.570Z,49.57
2023-05-13T18:19:35.724Z,49.49
2023-05-13T18:22:08.647Z,49.59
2023-05-13T18:24:40.274Z,49.51
2023-05-13T18:27:12.369Z,49.46
2023-05-13T18:29:43.600Z,49.54
2023-05-13T18:32:14.782Z,49.81
2023-05-13T18:34:46.352Z,50.02
2023-05-13T18:37:18.827Z,50.03
2023-05-13T18:39:49.947Z,50.10
2023-05-13T18:42:21.426Z,50.26
2023-05-13T18:44:52.530Z,50.27
2023-05-13T18:47:24.369Z,50.17
2023-05-13T18:49:55.796Z,49.77
2023-05-13T18:52:27.262Z,49.54
2023-05-13T18:54:58.426Z,49.72
2023-05-13T18:57:29.592Z,49.79
2023-05-13T19:00:01.040Z,49.74
2023-05-13T19:02:32.291Z,49.63
2023-05-13T19:05:03.717Z,49.51
2023-05-13T19:07:35.018Z,49.19
2023-05-13T19:10:07.253Z,48.96
2023-05-13T19:12:38.455Z,48.78
2023-05-13T19:15:11.726Z,48.63
2023-05-13T19:17:43.247Z,48.84
2023-05-13T19:20:15.210Z,48.86
2023-05-13T19:22:46.608Z,48.70
2023-05-13T19:25:18.076Z,48.72
2023-05-13T19:27:49.982Z,48.74
2023-05-13T19:30:22.082Z,49.10
2023-05-13T19:32:53.771Z,49.57
2023-05-13T19:35:25.425Z,49.77
2023-05-13T19:37:56.831Z,50.03
2023-05-13T19:40:27.861Z,50.19
2023-05-13T19:42:58.921Z,49.99
2023-05-13T19:45:30.198Z,50.02
2023-05-13T19:48:01.495Z,49.85
2023-05-13T19:50:33.162Z,49.96
2023-05-13T19:53:04.811Z,49.94
2023-05-13T19:55:36.156Z,49.73
2023-05-13T19:58:07.779Z,49.87
2023-05-13T20:00:39.007Z,50.08
2023-05-13T20:03:10.546Z,50.03
2023-05-13T20:05:42.606Z,50.14
2023-05-13T20:08:14.197Z,49.96
2023-05-13T20:10:45.945Z,49.90
2023-05-13T20:13:17.388Z,50.04
2023-05-13T20:15:48.494Z,50.04
2023-05-13T20:18:19.841Z,49.97
2023-05-13T20:20:51.585Z,49.99
2023-05-13T20:23:22.807Z,50.03
2023-05-13T20:25:56.912Z,50.10
2023-05-13T20:28:28.278Z,50.21
2023-05-13T20:31:00.008Z,50.29
2023-05-13T20:33:31.394Z,50.35
2023-05-13T20:36:03.112Z,50.42
2023-05-13T20:38:35.016Z,50.44
2023-05-13T20:41:06.057Z,50.62
2023-05-13T20:43:38.643Z,50.57
2023-05-13T20:46:14.860Z,50.63
2023-05-13T20:48:48.007Z,50.62
2023-05-13T20:51:19.553Z,50.61
2023-05-13T20:53:50.804Z,50.74
2023-05-13T20:56:22.304Z,50.66
2023-05-13T20:58:54.423Z,50.68
2023-05-13T21:01:25.789Z,50.41
2023-05-13T21:03:57.935Z,50.46
2023-05-13T21:06:30.090Z,50.39
2023-05-13T21:09:01.132Z,50.37
2023-05-13T21:11:32.705Z,50.27
2023-05-13T21:14:03.763Z,50.31
2023-05-13T21:16:36.033Z,50.37
2023-05-13T21:19:08.540Z,50.43
2023-05-13T21:21:40.056Z,50.40
2023-05-13T21:24:11.570Z,50.41
2023-05-13T21:26:42.702Z,50.30
2023-05-13T21:29:14.180Z,50.14
2023-05-13T21:31:46.074Z,49.93
2023-05-13T21:34:17.180Z,49.88
2023-05-13T21:36:48.883Z,49.68
2023-05-13T21:39:19.864Z,49.76
2023-05-13T21:41:50.833Z,49.67
2023-05-13T21:44:22.037Z,49.57
2023-05-13T21:46:53.578Z,49.52
2023-05-13T21:49:25.455Z,49.26
2023-05-13T21:51:56.508Z,49.19
2023-05-13T21:54:27.540Z,49.16
2023-05-13T21:56:58.694Z,49.17
2023-05-13T21:59:30.130Z,48.95
2023-05-13T22:02:01.305Z,48.86
2023-05-13T22:04:32.616Z,48.72
2023-05-13T22:07:03.853Z,48.91
2023-05-13T22:09:35.119Z,48.79
2023-05-13T22:12:07.261Z,48.78
2023-05-13T22:14:38.762Z,48.70
2023-05-13T22:17:10.734Z,48.65
2023-05-13T22:19:42.445Z,48.76
2023-05-13T22:22:14.606Z,48.59
2023-05-13T22:24:45.535Z,48.36
2023-05-13T22:27:16.993Z,48.41
2023-05-13T22:29:48.130Z,48.28
2023-05-13T22:32:19.493Z,48.56
2023-05-13T22:34:50.865Z,48.55
2023-05-13T22:37:22.467Z,48.56
2023-05-13T22:39:53.813Z,48.51
2023-05-13T22:42:24.920Z,48.69
2023-05-13T22:44:55.956Z,48.66
2023-05-13T22:47:27.369Z,48.67
2023-05-13T22:49:58.769Z,48.53
2023-05-13T22:52:29.716Z,48.38
2023-05-13T22:55:01.474Z,48.32
2023-05-13T22:57:32.497Z,48.29
2023-05-13T23:00:04.288Z,48.22
2023-05-13T23:02:35.697Z,48.24
2023-05-13T23:05:08.514Z,48.16
2023-05-13T23:07:39.357Z,48.14
2023-05-13T23:10:11.982Z,48.16
2023-05-13T23:12:43.319Z,48.12
2023-05-13T23:15:16.253Z,47.98
2023-05-13T23:17:47.191Z,47.99
2023-05-13T23:20:18.681Z,48.13
2023-05-13T23:22:50.542Z,48.04
2023-05-13T23:25:22.010Z,48.02
2023-05-13T23:27:53.497Z,47.93
2023-05-13T23:30:25.294Z,47.94
2023-05-13T23:32:56.828Z,47.96
2023-05-13T23:35:28.098Z,47.88
2023-05-13T23:37:59.035Z,47.86
2023-05-13T23:40:30.587Z,47.86
2023-05-13T23:43:02.569Z,47.75
2023-05-13T23:45:33.771Z,47.61
2023-05-13T23:48:05.393Z,47.33
2023-05-13T23:50:36.917Z,47.49
2023-05-13T23:53:08.456Z,47.26
2023-05-13T23:55:39.932Z,47.22
2023-05-13T23:58:11.254Z,47.31
